createdAt,value
2017-08-01T00:01:02.165Z,21.70
2017-08-01T00:03:29.198Z,21.80
2017-08-01T00:05:55.561Z,21.80
2017-08-01T00:08:22.605Z,21.90
2017-08-01T00:10:48.875Z,21.90
2017-08-01T00:13:15.243Z,22.00
2017-08-01T00:15:41.542Z,22.00
2017-08-01T00:18:07.827Z,22.10
2017-08-01T00:20:34.145Z,22.10
2017-08-01T00:23:01.200Z,22.10
2017-08-01T00:25:28.260Z,22.10
2017-08-01T00:27:54.524Z,22.10
2017-08-01T00:30:20.841Z,22.10
2017-08-01T00:32:47.118Z,22.20
2017-08-01T00:35:13.396Z,22.10
2017-08-01T00:37:39.694Z,22.10
2017-08-01T00:40:05.975Z,22.00
2017-08-01T00:42:32.288Z,22.00
2017-08-01T00:44:58.562Z,22.00
2017-08-01T00:47:24.832Z,22.00
2017-08-01T00:49:51.124Z,21.90
2017-08-01T00:52:17.400Z,21.90
2017-08-01T00:54:43.717Z,21.80
2017-08-01T00:57:09.995Z,21.80
2017-08-01T00:59:36.280Z,21.70
2017-08-01T01:02:02.568Z,21.60
2017-08-01T01:04:29.799Z,21.70
2017-08-01T01:06:56.027Z,21.60
2017-08-01T01:09:22.321Z,21.70
2017-08-01T01:11:48.639Z,21.80
2017-08-01T01:14:15.024Z,21.90
2017-08-01T01:16:41.315Z,22.00
2017-08-01T01:19:07.587Z,22.00
2017-08-01T01:21:34.656Z,21.90
2017-08-01T01:24:01.695Z,21.80
2017-08-01T01:26:28.715Z,21.80
2017-08-01T01:28:55.008Z,21.70
2017-08-01T01:31:21.336Z,21.70
2017-08-01T01:33:47.843Z,21.50
2017-08-01T01:36:14.856Z,21.00
2017-08-01T01:38:41.216Z,21.00
2017-08-01T01:41:08.243Z,19.80
2017-08-01T01:43:34.531Z,19.80
2017-08-01T01:46:00.815Z,19.50
2017-08-01T01:48:27.131Z,19.10
2017-08-01T01:50:53.415Z,18.90
2017-08-01T01:53:19.718Z,18.70
2017-08-01T01:55:45.999Z,18.60
2017-08-01T01:58:12.316Z,18.60
2017-08-01T02:00:38.592Z,18.60
2017-08-01T02:03:04.863Z,18.50
2017-08-01T02:05:31.170Z,18.50
2017-08-01T02:07:58.188Z,18.50
2017-08-01T02:10:24.464Z,18.40
2017-08-01T02:12:50.743Z,18.50
2017-08-01T02:15:17.043Z,18.40
2017-08-01T02:17:43.358Z,18.40
2017-08-01T02:20:09.627Z,18.40
2017-08-01T02:22:36.024Z,18.60
2017-08-01T02:25:02.388Z,18.60
2017-08-01T02:27:28.676Z,18.60
2017-08-01T02:29:55.011Z,18.70
2017-08-01T02:32:21.292Z,18.70
2017-08-01T02:34:48.361Z,18.70
2017-08-01T02:37:15.400Z,18.70
2017-08-01T02:39:42.406Z,18.60
2017-08-01T02:42:08.696Z,18.60
2017-08-01T02:44:35.142Z,18.60
2017-08-01T02:47:01.499Z,18.70
2017-08-01T02:49:27.813Z,18.70
2017-08-01T02:51:54.135Z,18.70
2017-08-01T02:54:20.408Z,18.70
2017-08-01T02:56:46.675Z,18.70
2017-08-01T02:59:12.971Z,18.80
2017-08-01T03:01:39.987Z,18.60
2017-08-01T03:04:06.264Z,18.60
2017-08-01T03:06:32.571Z,18.60
2017-08-01T03:08:59.611Z,18.40
2017-08-01T03:11:25.907Z,18.40
2017-08-01T03:13:52.192Z,18.50
2017-08-01T03:16:19.223Z,18.50
2017-08-01T03:18:45.711Z,18.50
2017-08-01T03:21:12.023Z,18.50
2017-08-01T03:23:38.319Z,18.50
2017-08-01T03:26:04.667Z,18.50
2017-08-01T03:28:31.711Z,18.50
2017-08-01T03:30:58.084Z,18.50
2017-08-01T03:33:24.375Z,18.50
2017-08-01T03:35:51.444Z,18.40
2017-08-01T03:38:17.779Z,18.40
2017-08-01T03:40:44.091Z,18.40
2017-08-01T03:43:11.122Z,18.30
2017-08-01T03:45:38.176Z,18.20
2017-08-01T03:48:05.184Z,18.20
2017-08-01T03:50:31.451Z,18.20
2017-08-01T03:52:58.489Z,18.20
2017-08-01T03:55:24.760Z,18.20
2017-08-01T03:57:51.049Z,18.20
2017-08-01T04:00:17.464Z,18.30
2017-08-01T04:02:43.780Z,18.30
2017-08-01T04:05:10.119Z,18.30
2017-08-01T04:07:36.399Z,18.30
2017-08-01T04:10:02.708Z,18.30
2017-08-01T04:12:28.991Z,18.40
2017-08-01T04:14:55.303Z,18.40
2017-08-01T04:17:21.593Z,18.40
2017-08-01T04:19:48.623Z,18.40
2017-08-01T04:22:14.904Z,18.40
2017-08-01T04:24:41.175Z,18.50
2017-08-01T04:27:07.538Z,18.60
2017-08-01T04:29:33.832Z,18.70
2017-08-01T04:32:00.149Z,18.80
2017-08-01T04:34:26.425Z,18.80
2017-08-01T04:36:52.927Z,18.80
2017-08-01T04:39:19.247Z,18.90
2017-08-01T04:41:45.527Z,18.90
2017-08-01T04:44:11.848Z,18.80
2017-08-01T04:46:38.860Z,18.90
2017-08-01T04:49:05.157Z,18.90
2017-08-01T04:51:31.532Z,18.90
2017-08-01T04:53:57.807Z,18.80
2017-08-01T04:56:24.214Z,18.80
2017-08-01T04:58:51.324Z,18.90
2017-08-01T05:01:17.599Z,18.80
2017-08-01T05:03:44.635Z,19.00
2017-08-01T05:06:11.653Z,19.00
2017-08-01T05:08:37.983Z,19.00
2017-08-01T05:11:04.275Z,19.10
2017-08-01T05:13:30.547Z,19.20
2017-08-01T05:15:56.864Z,19.20
2017-08-01T05:18:23.139Z,19.30
2017-08-01T05:20:50.175Z,19.30
2017-08-01T05:23:17.203Z,19.40
2017-08-01T05:25:43.535Z,19.40
2017-08-01T05:28:09.812Z,19.50
2017-08-01T05:30:36.244Z,19.70
2017-08-01T05:33:02.545Z,19.70
2017-08-01T05:35:28.987Z,19.80
2017-08-01T05:37:55.294Z,20.00
2017-08-01T05:40:21.588Z,20.50
2017-08-01T05:42:47.924Z,20.80
2017-08-01T05:45:14.232Z,20.90
2017-08-01T05:47:40.586Z,20.90
2017-08-01T05:50:06.912Z,21.50
2017-08-01T05:52:33.397Z,23.10
2017-08-01T05:55:00.440Z,27.20
2017-08-01T05:57:27.435Z,29.10
2017-08-01T05:59:53.845Z,29.10
2017-08-01T06:02:20.184Z,30.80
2017-08-01T06:04:46.456Z,32.20
2017-08-01T06:07:12.747Z,33.50
2017-08-01T06:09:39.140Z,34.80
2017-08-01T06:12:06.296Z,36.60
2017-08-01T06:14:33.342Z,37.10
2017-08-01T06:17:00.358Z,37.70
2017-08-01T06:19:26.669Z,37.70
2017-08-01T06:21:52.968Z,38.30
2017-08-01T06:24:19.296Z,39.00
2017-08-01T06:26:45.636Z,39.70
2017-08-01T06:29:11.963Z,40.30
2017-08-01T06:31:38.237Z,40.90
2017-08-01T06:34:04.564Z,41.30
2017-08-01T06:36:30.882Z,41.20
2017-08-01T06:38:57.193Z,41.40
2017-08-01T06:41:23.614Z,41.80
2017-08-01T06:43:49.904Z,42.50
2017-08-01T06:46:16.963Z,43.40
2017-08-01T06:48:43.983Z,43.90
2017-08-01T06:51:11.095Z,44.20
2017-08-01T06:53:37.416Z,44.20
2017-08-01T06:56:03.864Z,44.60
2017-08-01T06:58:30.282Z,45.10
2017-08-01T07:00:56.576Z,44.90
2017-08-01T07:03:23.867Z,40.90
2017-08-01T07:05:50.144Z,40.90
2017-08-01T07:08:17.336Z,38.20
2017-08-01T07:10:43.789Z,38.20
2017-08-01T07:13:10.087Z,38.00
2017-08-01T07:15:36.384Z,37.70
2017-08-01T07:18:03.498Z,36.40
2017-08-01T07:20:29.832Z,36.40
2017-08-01T07:22:56.125Z,35.60
2017-08-01T07:25:22.429Z,35.80
2017-08-01T07:27:49.485Z,36.70
2017-08-01T07:30:16.533Z,37.60
2017-08-01T07:32:42.837Z,37.60
2017-08-01T07:35:09.176Z,38.80
2017-08-01T07:37:35.478Z,40.30
2017-08-01T07:40:01.802Z,42.20
2017-08-01T07:42:28.108Z,42.30
2017-08-01T07:44:54.391Z,42.80
2017-08-01T07:47:20.714Z,43.30
2017-08-01T07:49:47.029Z,44.20
2017-08-01T07:52:13.300Z,45.10
2017-08-01T07:54:39.644Z,44.00
2017-08-01T07:57:05.946Z,41.60
2017-08-01T07:59:32.308Z,39.40
2017-08-01T08:01:58.636Z,37.20
2017-08-01T08:04:24.928Z,35.10
2017-08-01T08:06:51.225Z,34.20
2017-08-01T08:09:17.660Z,33.90
2017-08-01T08:11:43.960Z,33.30
2017-08-01T08:14:10.270Z,32.70
2017-08-01T08:16:36.580Z,31.90
2017-08-01T08:19:02.903Z,31.00
2017-08-01T08:21:29.196Z,30.50
2017-08-01T08:23:55.599Z,31.70
2017-08-01T08:26:22.668Z,32.30
2017-08-01T08:28:48.960Z,32.20
2017-08-01T08:31:16.032Z,34.10
2017-08-01T08:33:42.332Z,34.10
2017-08-01T08:36:08.691Z,35.00
2017-08-01T08:38:35.721Z,36.60
2017-08-01T08:41:02.748Z,37.40
2017-08-01T08:43:29.040Z,37.40
2017-08-01T08:45:55.315Z,37.20
2017-08-01T08:48:22.348Z,34.90
2017-08-01T08:50:48.625Z,34.80
2017-08-01T08:53:14.923Z,33.70
2017-08-01T08:55:41.205Z,32.50
2017-08-01T08:58:07.560Z,31.90
2017-08-01T09:00:33.908Z,32.10
2017-08-01T09:03:00.939Z,33.60
2017-08-01T09:05:27.268Z,33.50
2017-08-01T09:07:53.692Z,34.50
2017-08-01T09:10:20.036Z,34.70
2017-08-01T09:12:46.448Z,34.40
2017-08-01T09:15:12.762Z,34.20
2017-08-01T09:17:39.137Z,33.80
2017-08-01T09:20:05.396Z,33.20
2017-08-01T09:22:32.412Z,32.50
2017-08-01T09:24:58.713Z,32.40
2017-08-01T09:27:25.051Z,32.00
2017-08-01T09:29:51.452Z,31.50
2017-08-01T09:32:17.831Z,31.10
2017-08-01T09:34:44.344Z,31.00
2017-08-01T09:37:10.644Z,31.10
2017-08-01T09:39:36.918Z,31.00
2017-08-01T09:42:03.230Z,31.10
2017-08-01T09:44:29.515Z,31.40
2017-08-01T09:46:55.828Z,32.60
2017-08-01T09:49:22.110Z,33.50
2017-08-01T09:51:48.400Z,33.80
2017-08-01T09:54:15.447Z,32.70
2017-08-01T09:56:42.473Z,32.20
2017-08-01T09:59:08.801Z,32.20
2017-08-01T10:01:35.139Z,31.70
2017-08-01T10:04:01.520Z,31.30
2017-08-01T10:06:27.836Z,30.90
2017-08-01T10:08:54.176Z,30.80
2017-08-01T10:11:20.508Z,31.00
2017-08-01T10:13:46.825Z,31.50
2017-08-01T10:16:13.124Z,31.80
2017-08-01T10:18:39.398Z,32.10
2017-08-01T10:21:05.812Z,32.30
2017-08-01T10:23:32.087Z,32.40
2017-08-01T10:25:58.383Z,32.70
2017-08-01T10:28:24.702Z,32.40
2017-08-01T10:30:51.000Z,31.90
2017-08-01T10:33:17.449Z,31.40
2017-08-01T10:35:44.492Z,31.20
2017-08-01T10:38:11.571Z,31.30
2017-08-01T10:40:37.875Z,31.30
2017-08-01T10:43:04.891Z,31.50
2017-08-01T10:45:31.973Z,31.50
2017-08-01T10:47:58.984Z,31.70
2017-08-01T10:50:25.270Z,31.70
2017-08-01T10:52:51.593Z,31.80
2017-08-01T10:55:17.875Z,31.90
2017-08-01T10:57:44.155Z,31.80
2017-08-01T11:00:10.420Z,31.70
2017-08-01T11:02:36.890Z,31.60
2017-08-01T11:05:03.936Z,31.10
2017-08-01T11:07:30.260Z,31.20
2017-08-01T11:09:57.283Z,30.60
2017-08-01T11:12:23.676Z,30.60
2017-08-01T11:14:49.988Z,30.20
2017-08-01T11:17:16.412Z,29.80
2017-08-01T11:19:43.484Z,29.50
2017-08-01T11:22:09.780Z,29.50
2017-08-01T11:24:36.815Z,29.60
2017-08-01T11:27:03.149Z,29.60
2017-08-01T11:29:30.199Z,29.90
2017-08-01T11:31:56.504Z,29.90
2017-08-01T11:34:22.824Z,30.20
2017-08-01T11:36:49.169Z,30.20
2017-08-01T11:39:15.589Z,30.40
2017-08-01T11:41:42.052Z,30.60
2017-08-01T11:44:08.360Z,30.60
2017-08-01T11:46:34.652Z,30.80
2017-08-01T11:49:00.961Z,30.80
2017-08-01T11:51:28.033Z,30.80
2017-08-01T11:53:54.304Z,30.80
2017-08-01T11:56:20.616Z,30.60
2017-08-01T11:58:46.905Z,30.80
2017-08-01T12:01:13.233Z,30.90
2017-08-01T12:03:39.568Z,31.20
2017-08-01T12:06:05.847Z,31.30
2017-08-01T12:08:32.248Z,31.30
2017-08-01T12:10:58.529Z,31.30
2017-08-01T12:13:25.781Z,31.30
2017-08-01T12:15:52.070Z,31.30
2017-08-01T12:18:18.369Z,31.30
2017-08-01T12:20:44.676Z,31.40
2017-08-01T12:23:10.971Z,31.50
2017-08-01T12:25:37.273Z,31.20
2017-08-01T12:28:03.587Z,31.20
2017-08-01T12:30:29.980Z,31.20
2017-08-01T12:32:57.046Z,31.40
2017-08-01T12:35:24.067Z,31.20
2017-08-01T12:37:51.137Z,31.20
2017-08-01T12:40:18.256Z,31.00
2017-08-01T12:42:44.596Z,31.00
2017-08-01T12:45:10.865Z,30.90
2017-08-01T12:47:37.159Z,31.00
2017-08-01T12:50:03.454Z,31.10
2017-08-01T12:52:29.752Z,31.10
2017-08-01T12:54:56.032Z,31.20
2017-08-01T12:57:22.351Z,31.30
2017-08-01T12:59:48.673Z,31.20
2017-08-01T13:02:14.971Z,31.10
2017-08-01T13:04:41.260Z,30.90
2017-08-01T13:07:07.588Z,30.50
2017-08-01T13:09:34.635Z,29.70
2017-08-01T13:12:00.932Z,29.70
2017-08-01T13:14:27.201Z,29.30
2017-08-01T13:16:54.248Z,28.50
2017-08-01T13:19:21.367Z,28.10
2017-08-01T13:21:47.651Z,28.00
2017-08-01T13:24:14.121Z,27.90
2017-08-01T13:26:40.403Z,27.60
2017-08-01T13:29:06.732Z,27.30
2017-08-01T13:31:33.829Z,26.90
2017-08-01T13:34:00.115Z,26.80
2017-08-01T13:36:26.413Z,26.70
2017-08-01T13:38:52.713Z,26.60
2017-08-01T13:41:19.020Z,26.40
2017-08-01T13:43:45.346Z,26.20
2017-08-01T13:46:11.716Z,26.10
2017-08-01T13:48:38.035Z,26.10
2017-08-01T13:51:04.360Z,26.10
2017-08-01T13:53:30.685Z,26.10
2017-08-01T13:55:56.967Z,26.00
2017-08-01T13:58:23.338Z,25.90
2017-08-01T14:00:49.607Z,25.80
2017-08-01T14:03:15.988Z,25.80
2017-08-01T14:05:42.297Z,25.90
2017-08-01T14:08:08.584Z,26.00
2017-08-01T14:10:34.871Z,26.00
2017-08-01T14:13:01.940Z,26.00
2017-08-01T14:15:28.288Z,26.00
2017-08-01T14:17:54.599Z,25.90
2017-08-01T14:20:20.915Z,25.70
2017-08-01T14:22:47.204Z,25.50
2017-08-01T14:25:13.665Z,25.30
2017-08-01T14:27:39.959Z,25.20
2017-08-01T14:30:06.458Z,25.00
2017-08-01T14:32:32.791Z,25.00
2017-08-01T14:34:59.111Z,24.90
2017-08-01T14:37:25.416Z,24.70
2017-08-01T14:39:51.780Z,24.60
2017-08-01T14:42:18.072Z,24.60
2017-08-01T14:44:45.224Z,24.80
2017-08-01T14:47:11.520Z,24.70
2017-08-01T14:49:37.843Z,24.90
2017-08-01T14:52:04.177Z,25.00
2017-08-01T14:54:30.480Z,25.00
2017-08-01T14:56:56.766Z,25.00
2017-08-01T14:59:23.063Z,25.20
2017-08-01T15:01:49.363Z,25.20
2017-08-01T15:04:15.680Z,25.20
2017-08-01T15:06:42.012Z,25.10
2017-08-01T15:09:08.326Z,25.00
2017-08-01T15:11:34.604Z,24.70
2017-08-01T15:14:00.911Z,24.40
2017-08-01T15:16:27.203Z,24.30
2017-08-01T15:18:54.257Z,24.30
2017-08-01T15:21:21.302Z,24.40
2017-08-01T15:23:47.608Z,24.30
2017-08-01T15:26:14.092Z,24.60
2017-08-01T15:28:40.412Z,24.80
2017-08-01T15:31:06.748Z,25.00
2017-08-01T15:33:33.060Z,25.30
2017-08-01T15:35:59.387Z,25.50
2017-08-01T15:38:25.665Z,25.70
2017-08-01T15:40:51.981Z,25.80
2017-08-01T15:43:18.276Z,25.90
2017-08-01T15:45:45.329Z,26.10
2017-08-01T15:48:11.625Z,26.00
2017-08-01T15:50:37.947Z,26.10
2017-08-01T15:53:04.256Z,26.20
2017-08-01T15:55:30.535Z,26.30
2017-08-01T15:57:57.652Z,26.30
2017-08-01T16:00:23.969Z,26.40
2017-08-01T16:02:50.268Z,26.20
2017-08-01T16:05:16.576Z,26.10
2017-08-01T16:07:42.913Z,25.90
2017-08-01T16:10:09.235Z,25.70
2017-08-01T16:12:36.277Z,25.40
2017-08-01T16:15:02.601Z,25.30
2017-08-01T16:17:29.677Z,25.30
2017-08-01T16:19:56.071Z,25.20
2017-08-01T16:22:22.400Z,25.20
2017-08-01T16:24:48.761Z,25.20
2017-08-01T16:27:15.120Z,25.10
2017-08-01T16:29:41.455Z,25.00
2017-08-01T16:32:07.744Z,24.80
2017-08-01T16:34:34.056Z,24.60
2017-08-01T16:37:01.117Z,24.60
2017-08-01T16:39:28.191Z,24.70
2017-08-01T16:41:54.475Z,24.70
2017-08-01T16:44:20.810Z,24.80
2017-08-01T16:46:47.278Z,25.00
2017-08-01T16:49:13.608Z,25.10
2017-08-01T16:51:39.917Z,25.20
2017-08-01T16:54:06.300Z,25.40
2017-08-01T16:56:32.601Z,25.60
2017-08-01T16:58:58.892Z,25.70
2017-08-01T17:01:26.026Z,25.90
2017-08-01T17:03:52.324Z,25.90
2017-08-01T17:06:18.624Z,26.00
2017-08-01T17:08:44.915Z,26.00
2017-08-01T17:11:11.291Z,26.00
2017-08-01T17:13:37.661Z,26.00
2017-08-01T17:16:03.998Z,25.90
2017-08-01T17:18:30.509Z,25.90
2017-08-01T17:20:56.895Z,25.90
2017-08-01T17:23:23.981Z,25.90
2017-08-01T17:25:50.314Z,25.90
2017-08-01T17:28:16.592Z,25.90
2017-08-01T17:30:42.989Z,25.90
2017-08-01T17:33:09.273Z,25.90
2017-08-01T17:35:36.541Z,25.90
2017-08-01T17:38:02.956Z,25.90
2017-08-01T17:40:30.035Z,25.80
2017-08-01T17:42:56.372Z,25.70
2017-08-01T17:45:22.692Z,25.70
2017-08-01T17:47:49.028Z,25.70
2017-08-01T17:50:15.315Z,25.70
2017-08-01T17:52:41.663Z,25.70
2017-08-01T17:55:08.003Z,25.70
2017-08-01T17:57:34.290Z,25.70
2017-08-01T18:00:00.620Z,25.70
2017-08-01T18:02:26.984Z,25.70
2017-08-01T18:04:53.441Z,25.70
2017-08-01T18:07:19.947Z,25.60
2017-08-01T18:09:47.025Z,25.40
2017-08-01T18:12:13.431Z,25.40
2017-08-01T18:14:39.811Z,25.30
2017-08-01T18:17:06.256Z,25.20
2017-08-01T18:19:32.690Z,25.10
2017-08-01T18:21:59.073Z,25.00
2017-08-01T18:24:25.411Z,24.90
2017-08-01T18:26:51.790Z,24.80
2017-08-01T18:29:18.132Z,24.70
2017-08-01T18:31:44.577Z,24.70
2017-08-01T18:34:10.970Z,24.70
2017-08-01T18:36:37.674Z,24.70
2017-08-01T18:39:04.311Z,24.60
2017-08-01T18:41:30.778Z,24.50
2017-08-01T18:43:57.484Z,24.40
2017-08-01T18:46:23.994Z,24.30
2017-08-01T18:48:50.417Z,24.10
2017-08-01T18:51:17.091Z,24.00
2017-08-01T18:53:43.935Z,24.10
2017-08-01T18:56:10.531Z,24.00
2017-08-01T18:58:37.309Z,23.90
2017-08-01T19:01:04.048Z,23.80
2017-08-01T19:03:30.787Z,23.70
2017-08-01T19:05:57.534Z,23.70
2017-08-01T19:08:24.266Z,23.60
2017-08-01T19:10:51.109Z,23.50
2017-08-01T19:13:17.849Z,23.50
2017-08-01T19:15:44.587Z,23.40
2017-08-01T19:18:11.329Z,23.40
2017-08-01T19:20:38.069Z,23.30
2017-08-01T19:23:04.808Z,23.30
2017-08-01T19:25:31.548Z,23.30
2017-08-01T19:27:58.289Z,23.40
2017-08-01T19:30:25.039Z,23.50
2017-08-01T19:32:52.001Z,23.60
2017-08-01T19:35:19.431Z,23.50
2017-08-01T19:37:46.168Z,23.40
2017-08-01T19:40:13.012Z,23.40
2017-08-01T19:42:39.614Z,23.30
2017-08-01T19:45:12.011Z,23.20
2017-08-01T19:47:38.763Z,23.10
2017-08-01T19:50:05.500Z,23.00
2017-08-01T19:52:32.343Z,23.00
2017-08-01T19:54:58.934Z,23.00
2017-08-01T19:57:25.940Z,22.90
2017-08-01T19:59:52.766Z,22.90
2017-08-01T20:02:19.429Z,22.80
2017-08-01T20:04:47.210Z,22.70
2017-08-01T20:07:14.117Z,22.60
2017-08-01T20:09:40.851Z,22.60
2017-08-01T20:12:07.804Z,22.50
2017-08-01T20:14:34.536Z,22.40
2017-08-01T20:17:01.199Z,22.30
2017-08-01T20:19:28.629Z,22.10
2017-08-01T20:21:55.266Z,22.10
2017-08-01T20:24:21.813Z,22.00
2017-08-01T20:26:48.545Z,21.90
2017-08-01T20:29:14.914Z,21.90
2017-08-01T20:31:41.924Z,21.80
2017-08-01T20:34:08.843Z,21.70
2017-08-01T20:36:36.385Z,21.70
2017-08-01T20:39:03.016Z,21.70
2017-08-01T20:41:29.458Z,21.70
2017-08-01T20:43:56.603Z,21.70
2017-08-01T20:46:23.668Z,21.70
2017-08-01T20:48:50.168Z,21.70
2017-08-01T20:51:16.472Z,21.70
2017-08-01T20:53:42.840Z,21.70
2017-08-01T20:56:09.149Z,21.70
2017-08-01T20:58:35.714Z,21.70
2017-08-01T21:01:02.984Z,21.70
2017-08-01T21:03:30.049Z,21.60
2017-08-01T21:05:56.376Z,21.60
2017-08-01T21:08:22.689Z,21.60
2017-08-01T21:10:48.997Z,21.60
2017-08-01T21:13:16.085Z,21.70
2017-08-01T21:18:37.316Z,21.70
2017-08-01T21:21:03.650Z,21.70
2017-08-01T21:23:29.990Z,21.70
2017-08-01T21:25:56.296Z,21.80
2017-08-01T21:28:22.616Z,21.80
2017-08-01T21:30:48.907Z,21.80
2017-08-01T21:33:15.204Z,21.70
2017-08-01T21:35:41.538Z,21.70
2017-08-01T21:38:07.907Z,21.70
2017-08-01T21:40:34.293Z,21.70
2017-08-01T21:43:00.596Z,21.70
2017-08-01T21:45:26.921Z,21.80
2017-08-01T21:47:53.992Z,21.70
2017-08-01T21:50:20.320Z,21.70
2017-08-01T21:52:46.680Z,21.70
2017-08-01T21:55:13.013Z,21.60
2017-08-01T21:57:39.324Z,21.60
2017-08-01T22:00:05.696Z,21.60
2017-08-01T22:02:32.770Z,21.50
2017-08-01T22:04:59.085Z,21.50
2017-08-01T22:07:26.149Z,21.50
2017-08-01T22:09:53.324Z,21.50
2017-08-01T22:12:19.619Z,21.50
2017-08-01T22:14:46.621Z,21.50
2017-08-01T22:17:12.940Z,21.50
2017-08-01T22:19:39.225Z,21.50
2017-08-01T22:22:06.309Z,21.40
2017-08-01T22:24:32.607Z,21.40
2017-08-01T22:26:59.643Z,21.60
2017-08-01T22:29:26.713Z,21.70
2017-08-01T22:31:53.084Z,21.60
2017-08-01T22:34:19.402Z,21.60
2017-08-01T22:36:45.872Z,21.60
2017-08-01T22:39:12.403Z,21.50
2017-08-01T22:41:38.731Z,21.40
2017-08-01T22:44:05.076Z,21.40
2017-08-01T22:46:32.152Z,21.40
2017-08-01T22:48:58.521Z,21.40
2017-08-01T22:51:24.796Z,21.40
2017-08-01T22:53:51.876Z,21.40
2017-08-01T22:56:18.204Z,21.40
2017-08-01T22:58:44.534Z,21.40
2017-08-01T23:01:10.844Z,21.30
2017-08-01T23:03:37.152Z,21.30
2017-08-01T23:06:03.448Z,21.30
2017-08-01T23:08:29.755Z,21.40
2017-08-01T23:10:56.041Z,21.40
2017-08-01T23:13:23.101Z,21.40
2017-08-01T23:15:49.400Z,21.40
2017-08-01T23:18:15.728Z,21.40
2017-08-01T23:20:42.056Z,21.30
2017-08-01T23:23:08.388Z,21.20
2017-08-01T23:25:34.692Z,21.10
2017-08-01T23:28:00.993Z,21.00
2017-08-01T23:30:27.295Z,20.90
2017-08-01T23:32:53.783Z,20.80
2017-08-01T23:35:20.096Z,20.70
2017-08-01T23:37:46.391Z,20.50
2017-08-01T23:40:12.678Z,20.40
2017-08-01T23:42:38.984Z,20.30
2017-08-01T23:45:05.291Z,20.20
2017-08-01T23:47:32.345Z,20.00
2017-08-01T23:49:59.538Z,20.00
2017-08-01T23:52:25.837Z,19.90
2017-08-01T23:54:52.176Z,19.90
2017-08-01T23:57:18.513Z,19.90
2017-08-01T23:59:44.807Z,19.80
